Time;durP1;ratioP1;P1;durP2;ratioP2;P2;SDS_P1;SDS_P2;PMS_P1;PMS_P2;Temp;Humidity;BMP_temperature;BMP_pressure;BME280_temperature;BME280_humidity;BME280_pressure;Samples;Min_cycle;Max_cycle;Signal;HPM_P1;HPM_P2
2023/03/19 00:01:59;;;;;;;3.38;1.50;;;13.90;99.90;;;;;;4194906;28;20033;-72
2023/03/19 00:03:59;;;;;;;2.75;1.40;;;13.90;99.90;;;;;;4193621;28;20472;-71
2023/03/19 00:06:01;;;;;;;3.35;1.70;;;13.90;99.90;;;;;;4185256;28;20127;-71
2023/03/19 00:08:01;;;;;;;3.15;1.60;;;14.00;99.90;;;;;;4183079;28;20033;-71
2023/03/19 00:10:02;;;;;;;3.10;1.60;;;14.00;99.90;;;;;;4187852;28;20029;-72
2023/03/19 00:12:03;;;;;;;2.17;1.40;;;14.00;99.90;;;;;;4185264;28;20032;-71
2023/03/19 00:14:04;;;;;;;2.53;1.63;;;14.00;99.90;;;;;;4174557;28;20029;-71
2023/03/19 00:16:06;;;;;;;2.83;1.50;;;14.10;99.90;;;;;;4193875;28;20369;-71
2023/03/19 00:18:07;;;;;;;2.20;1.40;;;14.10;99.90;;;;;;4187941;28;20086;-71
2023/03/19 00:20:10;;;;;;;2.88;1.60;;;14.10;99.90;;;;;;4199092;28;20062;-71
2023/03/19 00:22:10;;;;;;;3.92;1.95;;;14.10;99.90;;;;;;4196636;28;20070;-71
2023/03/19 00:24:11;;;;;;;2.63;1.48;;;14.10;99.90;;;;;;4184814;28;20047;-71
2023/03/19 00:26:12;;;;;;;3.58;1.80;;;14.10;99.90;;;;;;4195250;28;20028;-71
2023/03/19 00:28:13;;;;;;;1.85;1.30;;;14.10;99.90;;;;;;4190292;28;20391;-71
2023/03/19 00:30:13;;;;;;;3.45;1.52;;;14.10;99.90;;;;;;4189228;28;20048;-72
2023/03/19 00:32:14;;;;;;;3.03;1.52;;;14.10;99.90;;;;;;4185413;28;20036;-71
2023/03/19 00:34:17;;;;;;;2.20;1.20;;;14.10;99.90;;;;;;4196494;28;20070;-72
2023/03/19 00:36:18;;;;;;;2.33;1.33;;;14.10;99.90;;;;;;4188740;28;20063;-71
2023/03/19 00:38:19;;;;;;;2.22;1.40;;;14.10;99.90;;;;;;4185880;28;20116;-70
2023/03/19 00:40:20;;;;;;;4.55;1.60;;;14.10;99.90;;;;;;4195400;28;20036;-72
2023/03/19 00:42:21;;;;;;;3.85;1.40;;;14.10;99.90;;;;;;4193553;28;20061;-71
2023/03/19 00:44:21;;;;;;;2.45;1.40;;;14.10;99.90;;;;;;4188793;28;20036;-71
2023/03/19 00:46:23;;;;;;;3.17;1.63;;;14.10;99.90;;;;;;4183633;28;20108;-71
2023/03/19 00:48:24;;;;;;;2.87;1.33;;;14.10;99.90;;;;;;4195744;28;20035;-71
2023/03/19 00:50:25;;;;;;;3.00;1.45;;;14.10;99.90;;;;;;4193961;28;20283;-71
2023/03/19 00:52:25;;;;;;;2.22;1.33;;;14.10;99.90;;;;;;4196203;28;20090;-71
2023/03/19 00:54:26;;;;;;;1.85;1.30;;;14.10;99.90;;;;;;4194384;28;20123;-71
2023/03/19 00:56:27;;;;;;;2.03;1.60;;;14.10;99.90;;;;;;4193482;28;20039;-71
2023/03/19 00:58:27;;;;;;;2.05;1.33;;;14.10;99.90;;;;;;4195694;28;20052;-71
2023/03/19 01:00:28;;;;;;;2.22;1.48;;;14.10;99.90;;;;;;4179114;28;20044;-71
2023/03/19 01:02:30;;;;;;;2.50;1.33;;;14.10;99.90;;;;;;4195963;28;20025;-71
2023/03/19 01:04:31;;;;;;;4.65;1.80;;;14.10;99.90;;;;;;4195568;28;20041;-71
2023/03/19 01:06:32;;;;;;;2.75;1.90;;;14.10;99.90;;;;;;4194697;28;20052;-71
2023/03/19 01:08:32;;;;;;;4.32;2.35;;;14.10;99.90;;;;;;4195876;28;20032;-72
2023/03/19 01:10:33;;;;;;;3.35;2.00;;;14.10;99.90;;;;;;4201725;28;20024;-71
2023/03/19 01:12:34;;;;;;;3.80;2.17;;;14.00;99.90;;;;;;4192765;28;20033;-72
2023/03/19 01:14:35;;;;;;;5.43;2.53;;;14.00;99.90;;;;;;4195771;28;20101;-71
2023/03/19 01:16:36;;;;;;;5.20;2.42;;;13.90;99.90;;;;;;4194859;28;20060;-71
2023/03/19 01:18:36;;;;;;;3.88;1.88;;;13.80;99.90;;;;;;4185873;28;20091;-71
2023/03/19 01:20:39;;;;;;;4.90;2.03;;;13.80;99.90;;;;;;4194383;28;20027;-71
2023/03/19 01:22:42;;;;;;;3.55;2.10;;;13.70;99.90;;;;;;4191220;28;20472;-70
2023/03/19 01:24:43;;;;;;;4.07;1.92;;;13.60;99.90;;;;;;4193213;28;20024;-71
2023/03/19 01:26:44;;;;;;;4.95;1.77;;;13.50;99.90;;;;;;4195202;28;20035;-71
2023/03/19 01:28:45;;;;;;;2.35;1.60;;;13.40;99.90;;;;;;4186310;28;20040;-71
2023/03/19 01:30:45;;;;;;;4.07;1.80;;;13.30;99.90;;;;;;4186055;28;20028;-71
2023/03/19 01:32:46;;;;;;;1.90;1.38;;;13.30;99.90;;;;;;4191078;28;20408;-67
2023/03/19 01:34:46;;;;;;;3.17;1.63;;;13.20;99.90;;;;;;4192789;28;20048;-70
2023/03/19 01:36:47;;;;;;;3.08;1.40;;;13.20;99.90;;;;;;4194859;28;20040;-70
2023/03/19 01:38:48;;;;;;;3.63;1.42;;;13.10;99.90;;;;;;4195865;28;20372;-70
2023/03/19 01:40:48;;;;;;;3.33;1.52;;;13.10;99.90;;;;;;4194031;28;20124;-71
2023/03/19 01:43:11;;;;;;;1.65;1.30;;;13.10;99.90;;;;;;4190546;28;20024;-71
2023/03/19 01:45:32;;;;;;;1.97;1.30;;;13.00;99.90;;;;;;4193336;28;20048;-71
2023/03/19 01:47:40;;;;;;;2.63;1.10;;;12.90;99.90;;;;;;4193509;28;20780;-71
2023/03/19 01:49:44;;;;;;;1.75;1.15;;;12.90;99.90;;;;;;4195576;28;20035;-71
2023/03/19 01:51:46;;;;;;;2.60;1.25;;;12.90;99.90;;;;;;4192501;28;20483;-70
2023/03/19 01:53:51;;;;;;;3.45;1.65;;;12.80;99.90;;;;;;4195163;28;20131;-70
2023/03/19 01:55:56;;;;;;;4.07;1.52;;;12.80;99.90;;;;;;4190409;28;20072;-70
2023/03/19 01:57:57;;;;;;;2.53;1.63;;;12.70;99.90;;;;;;4190518;28;20391;-71
2023/03/19 02:00:00;;;;;;;2.58;1.38;;;12.70;99.90;;;;;;4195534;28;20040;-71
2023/03/19 02:02:17;;;;;;;6.50;1.73;;;12.80;99.90;;;;;;4194390;28;20087;-71
2023/03/19 02:04:18;;;;;;;3.17;1.35;;;12.70;99.90;;;;;;4188494;28;20061;-73
2023/03/19 02:06:20;;;;;;;3.47;1.50;;;12.70;99.90;;;;;;4181515;28;20040;-73
2023/03/19 02:08:23;;;;;;;2.15;1.35;;;12.70;99.90;;;;;;4163423;28;20488;-73
2023/03/19 02:10:25;;;;;;;3.95;1.38;;;12.70;99.90;;;;;;4176363;28;20340;-74
2023/03/19 02:12:25;;;;;;;2.80;1.42;;;12.70;99.90;;;;;;4191909;28;20024;-73
2023/03/19 02:14:26;;;;;;;2.35;1.27;;;12.70;99.90;;;;;;4192787;28;20066;-71
2023/03/19 02:16:27;;;;;;;3.55;1.58;;;12.70;99.90;;;;;;4191018;28;20025;-72
2023/03/19 02:18:27;;;;;;;2.25;1.40;;;12.70;99.90;;;;;;4191658;28;20036;-72
2023/03/19 02:20:34;;;;;;;3.17;1.77;;;12.70;99.90;;;;;;4190137;28;20099;-71
2023/03/19 02:22:38;;;;;;;3.70;1.48;;;12.60;99.90;;;;;;4194814;28;20375;-71
2023/03/19 02:24:48;;;;;;;3.42;1.55;;;12.60;99.90;;;;;;4188183;28;20033;-72
2023/03/19 02:26:49;;;;;;;2.72;1.67;;;12.60;99.90;;;;;;4187830;28;20419;-72
2023/03/19 02:28:51;;;;;;;3.78;1.55;;;12.60;99.90;;;;;;4191920;28;20346;-71
2023/03/19 02:30:52;;;;;;;3.72;1.70;;;12.60;99.90;;;;;;4192247;28;20028;-71
2023/03/19 02:32:53;;;;;;;2.95;1.50;;;12.60;99.90;;;;;;4178251;28;20130;-71
2023/03/19 02:34:53;;;;;;;3.72;1.52;;;12.60;99.90;;;;;;4192744;28;20045;-71
2023/03/19 02:36:59;;;;;;;4.63;1.50;;;12.60;99.90;;;;;;4186329;28;20139;-72
2023/03/19 02:39:02;;;;;;;2.70;1.40;;;12.60;99.90;;;;;;4188496;28;20105;-72
2023/03/19 02:41:07;;;;;;;2.35;1.30;;;12.60;99.90;;;;;;4192236;28;20031;-71
2023/03/19 02:43:07;;;;;;;2.13;1.35;;;12.70;99.90;;;;;;4191611;28;20036;-71
2023/03/19 02:45:08;;;;;;;2.00;1.30;;;12.70;99.90;;;;;;4188628;28;20028;-73
2023/03/19 02:47:09;;;;;;;2.30;1.30;;;12.70;99.90;;;;;;4190159;28;20047;-72
2023/03/19 02:49:10;;;;;;;3.13;1.52;;;12.70;99.90;;;;;;4192028;28;20051;-72
2023/03/19 02:51:11;;;;;;;2.45;1.35;;;12.70;99.90;;;;;;4184516;28;20048;-70
2023/03/19 02:53:12;;;;;;;2.08;1.25;;;12.70;99.90;;;;;;4179593;28;20553;-71
2023/03/19 02:55:12;;;;;;;2.40;1.48;;;12.70;99.90;;;;;;4187635;28;20037;-71
2023/03/19 02:57:13;;;;;;;2.70;1.20;;;12.70;99.90;;;;;;4191223;28;20036;-71
2023/03/19 02:59:14;;;;;;;2.13;1.02;;;12.70;99.90;;;;;;4190124;28;20386;-71
2023/03/19 03:01:14;;;;;;;2.60;1.27;;;12.80;99.90;;;;;;4182214;28;20076;-72
2023/03/19 03:03:15;;;;;;;3.03;1.30;;;12.80;99.90;;;;;;4193915;28;20028;-71
2023/03/19 03:05:17;;;;;;;2.33;1.30;;;12.80;99.90;;;;;;4191126;28;20048;-72
2023/03/19 03:07:17;;;;;;;2.15;1.27;;;12.80;99.90;;;;;;4189829;28;20202;-71
2023/03/19 03:09:19;;;;;;;3.75;1.38;;;12.80;99.90;;;;;;4186245;28;20032;-71
2023/03/19 03:11:19;;;;;;;2.95;1.33;;;12.80;99.90;;;;;;4186894;28;20488;-71
2023/03/19 03:13:20;;;;;;;3.47;1.20;;;12.90;99.90;;;;;;4190416;28;20124;-71
2023/03/19 03:15:20;;;;;;;1.92;1.10;;;12.90;99.90;;;;;;4183592;28;20045;-72
2023/03/19 03:17:21;;;;;;;1.95;1.20;;;12.90;99.90;;;;;;4182185;28;20032;-71
2023/03/19 03:19:22;;;;;;;2.15;1.40;;;12.90;99.90;;;;;;4190295;28;20048;-71
2023/03/19 03:21:22;;;;;;;2.50;1.35;;;12.90;99.90;;;;;;4178005;28;20047;-72
2023/03/19 03:23:23;;;;;;;2.63;1.25;;;12.90;99.90;;;;;;4193433;28;20043;-71
2023/03/19 03:25:24;;;;;;;3.35;1.55;;;12.90;99.90;;;;;;4192590;28;20039;-71
2023/03/19 03:27:25;;;;;;;2.42;1.40;;;12.90;99.90;;;;;;4190167;28;20383;-72
2023/03/19 03:29:26;;;;;;;4.57;1.48;;;12.90;99.90;;;;;;4191865;28;20033;-72
2023/03/19 03:31:27;;;;;;;2.08;1.20;;;12.90;99.90;;;;;;4196659;28;20028;-71
2023/03/19 03:33:28;;;;;;;2.22;1.40;;;12.90;99.90;;;;;;4188759;28;20479;-71
2023/03/19 03:35:29;;;;;;;1.98;1.40;;;12.90;99.90;;;;;;4187085;28;20036;-72
2023/03/19 03:37:30;;;;;;;4.82;1.63;;;12.90;99.90;;;;;;4194022;28;20298;-72
2023/03/19 03:39:31;;;;;;;5.30;1.73;;;12.90;99.90;;;;;;4191432;28;20128;-72
2023/03/19 03:41:32;;;;;;;2.83;1.52;;;12.90;99.90;;;;;;4191253;28;20017;-71
2023/03/19 03:43:32;;;;;;;1.70;1.40;;;12.90;99.90;;;;;;4192584;28;20017;-72
2023/03/19 03:45:33;;;;;;;3.78;1.83;;;12.90;99.90;;;;;;4193098;28;20032;-72
2023/03/19 03:47:35;;;;;;;3.25;1.35;;;12.90;99.90;;;;;;4190103;28;20412;-72
2023/03/19 03:49:35;;;;;;;3.07;1.73;;;12.90;99.90;;;;;;4192245;28;20498;-71
2023/03/19 03:51:36;;;;;;;2.85;1.60;;;12.90;99.90;;;;;;4195861;28;20259;-72
2023/03/19 03:53:36;;;;;;;3.63;1.58;;;12.90;99.90;;;;;;4195506;28;20108;-72
2023/03/19 03:55:37;;;;;;;3.10;1.95;;;12.90;99.90;;;;;;4192216;28;20025;-71
2023/03/19 03:57:38;;;;;;;3.35;1.80;;;12.90;99.90;;;;;;4184709;28;20060;-72
2023/03/19 03:59:38;;;;;;;2.95;1.45;;;12.90;99.90;;;;;;4190056;28;20025;-71
2023/03/19 04:01:39;;;;;;;3.72;2.00;;;12.90;99.90;;;;;;4195861;28;20028;-71
2023/03/19 04:03:40;;;;;;;4.38;1.95;;;12.90;99.90;;;;;;4191866;28;20527;-72
2023/03/19 04:05:40;;;;;;;2.33;1.60;;;12.90;99.90;;;;;;4180594;28;20044;-70
2023/03/19 04:07:41;;;;;;;3.00;1.63;;;13.00;99.90;;;;;;4190919;28;20048;-70
2023/03/19 04:09:42;;;;;;;3.60;1.65;;;12.90;99.90;;;;;;4194811;28;20025;-71
2023/03/19 04:11:43;;;;;;;2.78;1.60;;;13.00;99.90;;;;;;4195730;28;20098;-71
2023/03/19 04:13:43;;;;;;;1.60;1.35;;;13.00;99.90;;;;;;4191796;28;20025;-71
2023/03/19 04:15:44;;;;;;;4.85;1.60;;;13.00;99.90;;;;;;4187699;28;20507;-72
2023/03/19 04:17:45;;;;;;;6.80;1.90;;;13.00;99.90;;;;;;4192946;28;20475;-71
2023/03/19 04:19:45;;;;;;;2.78;1.98;;;13.00;99.90;;;;;;4191740;28;20029;-71
2023/03/19 04:21:46;;;;;;;4.65;1.85;;;13.10;99.90;;;;;;4187543;28;20029;-71
2023/03/19 04:23:47;;;;;;;4.30;1.80;;;13.10;99.90;;;;;;4194599;28;20503;-71
2023/03/19 04:25:47;;;;;;;4.18;1.80;;;13.00;99.90;;;;;;4187932;28;20483;-71
2023/03/19 04:27:48;;;;;;;4.47;1.65;;;13.00;99.90;;;;;;4191337;28;20144;-71
2023/03/19 04:29:48;;;;;;;4.07;1.98;;;13.00;99.90;;;;;;4194795;28;20123;-69
2023/03/19 04:31:50;;;;;;;3.55;1.83;;;13.00;99.90;;;;;;4195783;28;20035;-70
2023/03/19 04:33:50;;;;;;;5.53;1.85;;;13.00;99.90;;;;;;4192401;28;20045;-71
2023/03/19 04:35:51;;;;;;;2.00;1.55;;;13.00;99.90;;;;;;4192290;28;20424;-72
2023/03/19 04:37:52;;;;;;;5.45;2.08;;;13.00;99.90;;;;;;4191475;28;20029;-71
2023/03/19 04:39:53;;;;;;;3.40;1.98;;;13.00;99.90;;;;;;4182590;28;20021;-72
2023/03/19 04:41:54;;;;;;;2.83;1.70;;;13.10;99.90;;;;;;4191126;28;20027;-71
2023/03/19 04:43:55;;;;;;;2.30;1.50;;;13.00;99.90;;;;;;4191423;28;20079;-71
2023/03/19 04:45:55;;;;;;;2.65;1.85;;;13.10;99.90;;;;;;4189131;28;20455;-71
2023/03/19 04:47:57;;;;;;;2.88;1.67;;;13.10;99.90;;;;;;4192090;28;20028;-71
2023/03/19 04:49:57;;;;;;;5.35;2.03;;;13.10;99.90;;;;;;4194360;28;20577;-71
2023/03/19 04:51:58;;;;;;;2.80;1.90;;;13.10;99.90;;;;;;4189213;28;20029;-71
2023/03/19 04:53:59;;;;;;;3.83;1.80;;;13.10;99.90;;;;;;4185864;28;20033;-71
2023/03/19 04:56:00;;;;;;;4.22;1.80;;;13.10;99.90;;;;;;4188976;28;20028;-71
2023/03/19 04:58:00;;;;;;;3.40;2.10;;;13.10;99.90;;;;;;4193064;28;20064;-71
2023/03/19 05:00:01;;;;;;;2.67;1.95;;;13.10;99.90;;;;;;4188266;28;20387;-71
2023/03/19 05:02:02;;;;;;;4.57;2.50;;;13.10;99.90;;;;;;4193584;28;20487;-71
2023/03/19 05:04:03;;;;;;;3.28;1.92;;;13.10;99.90;;;;;;4195826;28;20472;-71
2023/03/19 05:06:04;;;;;;;2.97;1.85;;;13.10;99.90;;;;;;4192329;28;20179;-71
2023/03/19 05:08:04;;;;;;;2.92;2.00;;;13.00;99.90;;;;;;4192510;28;20488;-70
2023/03/19 05:10:06;;;;;;;5.25;2.25;;;13.10;99.90;;;;;;4194811;28;20111;-71
2023/03/19 05:12:07;;;;;;;3.63;2.20;;;13.10;99.90;;;;;;4192912;28;20047;-72
2023/03/19 05:14:08;;;;;;;4.38;2.22;;;13.00;99.90;;;;;;4190757;28;20044;-72
2023/03/19 05:16:09;;;;;;;3.15;2.15;;;13.00;99.90;;;;;;4191800;28;20041;-72
2023/03/19 05:18:10;;;;;;;3.90;2.55;;;13.00;99.90;;;;;;4193882;28;20502;-72
2023/03/19 05:20:11;;;;;;;4.95;2.40;;;13.00;99.90;;;;;;4194812;28;20060;-72
2023/03/19 05:22:12;;;;;;;3.63;2.85;;;12.90;99.90;;;;;;4193091;28;20055;-72
2023/03/19 05:24:12;;;;;;;6.15;3.20;;;12.90;99.90;;;;;;4184610;28;20029;-71
2023/03/19 05:26:14;;;;;;;5.63;3.15;;;12.90;99.90;;;;;;4189558;28;20509;-73
2023/03/19 05:28:15;;;;;;;4.85;2.95;;;12.80;99.90;;;;;;4189157;28;20032;-74
2023/03/19 05:30:17;;;;;;;4.55;2.83;;;12.80;99.90;;;;;;4192246;28;20040;-73
2023/03/19 05:32:17;;;;;;;6.18;3.10;;;12.80;99.90;;;;;;4194674;28;20033;-74
2023/03/19 05:34:18;;;;;;;5.95;3.15;;;12.80;99.90;;;;;;4189077;28;20089;-74
2023/03/19 05:36:19;;;;;;;4.47;2.95;;;12.80;99.90;;;;;;4190451;28;20036;-74
2023/03/19 05:38:19;;;;;;;4.35;2.55;;;12.80;99.90;;;;;;4192851;28;20060;-71
2023/03/19 05:40:22;;;;;;;3.13;2.60;;;12.80;99.90;;;;;;4191159;28;20028;-73
2023/03/19 05:42:22;;;;;;;3.95;2.30;;;12.80;99.90;;;;;;4186488;28;20094;-74
2023/03/19 05:44:23;;;;;;;4.00;2.53;;;12.80;99.90;;;;;;4190162;28;20029;-74
2023/03/19 05:46:23;;;;;;;5.45;2.58;;;12.80;99.90;;;;;;4187569;28;20033;-73
2023/03/19 05:48:25;;;;;;;3.78;2.33;;;12.80;99.90;;;;;;4191244;28;20459;-73
2023/03/19 05:50:25;;;;;;;4.63;2.60;;;12.70;99.90;;;;;;4186637;28;20025;-74
2023/03/19 05:52:26;;;;;;;4.10;2.20;;;12.70;99.90;;;;;;4193814;28;20029;-73
2023/03/19 05:54:27;;;;;;;2.92;2.50;;;12.70;99.90;;;;;;4194155;28;20495;-73
2023/03/19 05:56:28;;;;;;;3.95;2.40;;;12.70;99.90;;;;;;4188104;28;20445;-73
2023/03/19 05:58:29;;;;;;;2.58;2.17;;;12.70;99.90;;;;;;4186632;28;20036;-73
2023/03/19 06:00:31;;;;;;;4.75;2.72;;;12.70;99.90;;;;;;4191571;28;20515;-73
2023/03/19 06:02:33;;;;;;;4.20;2.13;;;12.70;99.90;;;;;;4194638;28;20052;-74
2023/03/19 06:04:33;;;;;;;5.80;2.67;;;12.70;99.90;;;;;;4190259;28;20029;-73
2023/03/19 06:06:34;;;;;;;5.63;2.15;;;12.70;99.90;;;;;;4189208;28;20478;-73
2023/03/19 06:08:34;;;;;;;3.35;2.38;;;12.70;99.90;;;;;;4191936;28;20384;-73
2023/03/19 06:10:35;;;;;;;5.65;2.60;;;12.70;99.90;;;;;;4189024;28;20108;-73
2023/03/19 06:12:36;;;;;;;3.40;2.15;;;12.70;99.90;;;;;;4191794;28;20032;-73
2023/03/19 06:14:37;;;;;;;5.80;2.22;;;12.70;99.90;;;;;;4193161;28;20521;-74
2023/03/19 06:16:37;;;;;;;3.00;2.17;;;12.70;99.90;;;;;;4189660;28;20059;-73
2023/03/19 06:18:38;;;;;;;4.47;2.47;;;12.70;99.90;;;;;;4192514;28;20040;-72
2023/03/19 06:20:38;;;;;;;4.80;2.70;;;12.70;99.90;;;;;;4190827;28;20025;-73
2023/03/19 06:22:39;;;;;;;3.92;2.53;;;12.70;99.90;;;;;;4190321;28;20040;-74
2023/03/19 06:24:40;;;;;;;3.55;2.50;;;12.70;99.90;;;;;;4191773;28;20032;-73
2023/03/19 06:26:40;;;;;;;4.18;2.72;;;12.70;99.90;;;;;;4188664;28;20418;-74
2023/03/19 06:28:41;;;;;;;4.78;2.88;;;12.70;99.90;;;;;;4191885;28;20059;-73
2023/03/19 06:30:42;;;;;;;3.83;2.65;;;12.70;99.90;;;;;;4190779;28;20021;-73
2023/03/19 06:32:42;;;;;;;3.13;2.63;;;12.70;99.90;;;;;;4191741;28;20036;-73
2023/03/19 06:34:43;;;;;;;3.67;2.63;;;12.70;99.90;;;;;;4192206;28;20033;-73
2023/03/19 06:36:44;;;;;;;5.05;3.10;;;12.70;99.90;;;;;;4188294;28;20033;-73
2023/03/19 06:38:44;;;;;;;5.50;2.80;;;12.70;99.90;;;;;;4191336;28;20472;-71
2023/03/19 06:40:45;;;;;;;3.20;2.50;;;12.70;99.90;;;;;;4185986;28;20039;-72
2023/03/19 06:42:46;;;;;;;3.83;2.80;;;12.70;99.90;;;;;;4187154;28;20029;-72
2023/03/19 06:44:47;;;;;;;5.20;3.33;;;12.70;99.90;;;;;;4188913;28;20516;-73
2023/03/19 06:46:48;;;;;;;3.67;2.72;;;12.70;99.90;;;;;;4188860;28;20545;-73
2023/03/19 06:48:48;;;;;;;4.50;2.50;;;12.60;99.90;;;;;;4191611;28;20040;-73
2023/03/19 06:50:49;;;;;;;3.88;2.78;;;12.70;99.90;;;;;;4189850;28;20036;-73
2023/03/19 06:52:49;;;;;;;6.35;3.17;;;12.70;99.90;;;;;;4189646;28;20028;-73
2023/03/19 06:54:50;;;;;;;4.72;2.95;;;12.70;99.90;;;;;;4191826;28;20040;-72
2023/03/19 06:56:51;;;;;;;4.10;2.72;;;12.70;99.90;;;;;;4182145;28;20468;-73
2023/03/19 06:58:51;;;;;;;5.35;3.72;;;12.70;99.90;;;;;;4183118;28;20039;-70
2023/03/19 07:00:52;;;;;;;5.85;3.47;;;12.70;99.90;;;;;;4188831;28;20040;-71
2023/03/19 07:02:52;;;;;;;3.83;3.10;;;12.70;99.90;;;;;;4191597;28;20369;-73
2023/03/19 07:04:53;;;;;;;4.30;3.08;;;12.60;99.90;;;;;;4193935;28;20052;-72
2023/03/19 07:06:54;;;;;;;5.00;3.47;;;12.60;99.90;;;;;;4184492;28;20098;-72
2023/03/19 07:08:55;;;;;;;3.80;2.95;;;12.70;99.90;;;;;;4186749;28;20051;-71
2023/03/19 07:10:56;;;;;;;3.28;2.80;;;12.60;99.90;;;;;;4189036;28;20678;-72
2023/03/19 07:12:57;;;;;;;3.67;3.08;;;12.60;99.90;;;;;;4189320;28;20059;-72
2023/03/19 07:14:58;;;;;;;4.50;2.90;;;12.60;99.90;;;;;;4188212;28;20123;-72
2023/03/19 07:16:58;;;;;;;3.55;2.40;;;12.60;99.90;;;;;;4183260;28;20032;-72
2023/03/19 07:18:59;;;;;;;4.88;3.38;;;12.60;99.90;;;;;;4176691;28;20109;-73
2023/03/19 07:21:00;;;;;;;3.22;2.75;;;12.60;99.90;;;;;;4190174;28;20025;-72
2023/03/19 07:23:00;;;;;;;4.10;2.90;;;12.60;99.90;;;;;;4189083;28;20515;-72
2023/03/19 07:25:01;;;;;;;4.47;2.65;;;12.60;99.90;;;;;;4186435;28;20456;-72
2023/03/19 07:27:02;;;;;;;2.67;2.40;;;12.60;99.90;;;;;;4188657;28;20039;-72
2023/03/19 07:29:02;;;;;;;4.72;3.10;;;12.70;99.90;;;;;;4187557;28;20043;-72
2023/03/19 07:31:03;;;;;;;5.63;3.13;;;12.70;99.90;;;;;;4177453;28;20516;-72
2023/03/19 07:33:06;;;;;;;5.28;2.78;;;12.70;99.90;;;;;;4186261;28;20400;-72
2023/03/19 07:35:08;;;;;;;4.43;2.88;;;12.80;99.90;;;;;;4185420;28;20120;-72
2023/03/19 07:37:09;;;;;;;6.53;3.20;;;12.80;99.90;;;;;;4183571;28;20064;-72
2023/03/19 07:39:09;;;;;;;5.18;3.42;;;12.80;99.90;;;;;;4190894;28;20025;-72
2023/03/19 07:41:10;;;;;;;3.33;2.90;;;12.90;99.90;;;;;;4188815;28;20097;-72
2023/03/19 07:43:11;;;;;;;6.93;3.25;;;12.90;99.90;;;;;;4173310;28;20637;-72
2023/03/19 07:45:12;;;;;;;5.18;3.45;;;12.90;99.90;;;;;;4190301;28;20120;-73
2023/03/19 07:47:12;;;;;;;3.65;3.13;;;13.00;99.90;;;;;;4184234;28;20119;-72
2023/03/19 07:49:13;;;;;;;5.82;3.08;;;13.00;99.90;;;;;;4187948;28;20036;-73
2023/03/19 07:51:14;;;;;;;3.88;3.30;;;13.00;99.90;;;;;;4191877;28;20071;-72
2023/03/19 07:53:14;;;;;;;4.65;3.28;;;13.00;99.90;;;;;;4176256;28;20490;-72
2023/03/19 07:55:15;;;;;;;5.20;3.10;;;13.00;99.90;;;;;;4186681;28;20036;-73
2023/03/19 07:57:16;;;;;;;5.32;3.40;;;13.10;99.90;;;;;;4178577;28;21468;-72
2023/03/19 07:59:16;;;;;;;5.03;3.65;;;13.10;99.90;;;;;;4171540;28;20040;-72
2023/03/19 08:01:17;;;;;;;7.65;3.85;;;13.10;99.90;;;;;;4154544;28;20042;-72
2023/03/19 08:03:18;;;;;;;4.75;3.25;;;13.10;99.90;;;;;;4178701;28;20037;-73
2023/03/19 08:05:18;;;;;;;3.80;3.40;;;13.20;99.90;;;;;;4192113;28;20048;-72
2023/03/19 08:07:19;;;;;;;4.95;3.60;;;13.20;99.90;;;;;;4190523;28;20125;-72
2023/03/19 08:09:20;;;;;;;5.30;4.25;;;13.20;99.90;;;;;;4192380;28;20037;-72
2023/03/19 08:11:21;;;;;;;5.72;4.05;;;13.20;99.90;;;;;;4189836;28;20033;-72
2023/03/19 08:13:22;;;;;;;4.95;3.72;;;13.20;99.90;;;;;;4188229;28;20041;-72
2023/03/19 08:15:22;;;;;;;3.90;3.10;;;13.30;99.90;;;;;;4188154;28;20116;-70
2023/03/19 08:17:23;;;;;;;3.22;2.78;;;13.30;99.90;;;;;;4193326;28;20036;-71
2023/03/19 08:19:24;;;;;;;4.53;3.00;;;13.30;99.90;;;;;;4193190;28;20036;-71
2023/03/19 08:21:24;;;;;;;5.60;3.00;;;13.40;99.90;;;;;;4194877;28;20045;-71
2023/03/19 08:23:25;;;;;;;4.90;3.40;;;13.50;99.90;;;;;;4192654;28;20966;-72
2023/03/19 08:25:26;;;;;;;3.75;3.08;;;13.60;99.90;;;;;;4190979;28;20060;-72
2023/03/19 08:27:29;;;;;;;5.80;3.05;;;13.50;99.90;;;;;;4193330;28;20041;-68
2023/03/19 08:29:29;;;;;;;;;;;13.60;99.90;;;;;;4195580;28;20032;-70
2023/03/19 08:31:30;;;;;;;6.05;3.20;;;13.60;99.90;;;;;;4193787;28;19919;-71
2023/03/19 08:33:31;;;;;;;5.57;3.72;;;13.70;99.90;;;;;;4196511;28;20388;-71
2023/03/19 08:35:31;;;;;;;5.38;3.63;;;13.70;99.90;;;;;;4190563;28;20037;-71
2023/03/19 08:37:32;;;;;;;4.32;3.22;;;13.80;99.90;;;;;;4192056;28;20056;-71
2023/03/19 08:39:32;;;;;;;6.28;3.63;;;13.90;99.90;;;;;;4188284;28;20372;-72
2023/03/19 08:41:33;;;;;;;4.60;3.28;;;14.00;99.90;;;;;;4192285;28;20041;-71
2023/03/19 08:43:38;;;;;;;4.20;3.42;;;14.10;99.90;;;;;;4191547;28;20028;-72
2023/03/19 08:45:38;;;;;;;3.83;3.40;;;14.10;99.90;;;;;;4193573;28;20387;-73
2023/03/19 08:47:39;;;;;;;6.82;3.35;;;14.20;99.90;;;;;;4191136;28;20057;-72
2023/03/19 08:49:40;;;;;;;4.80;2.90;;;14.20;99.90;;;;;;4191068;28;20041;-72
2023/03/19 08:51:41;;;;;;;3.88;2.72;;;14.20;99.90;;;;;;4189998;28;20036;-72
2023/03/19 08:53:41;;;;;;;2.83;2.38;;;14.30;99.90;;;;;;4192492;28;20035;-72
2023/03/19 08:55:42;;;;;;;5.80;2.80;;;14.30;99.90;;;;;;4189142;28;20044;-72
2023/03/19 08:57:43;;;;;;;5.72;3.63;;;14.30;99.90;;;;;;4192862;28;20064;-72
2023/03/19 08:59:44;;;;;;;4.53;3.50;;;14.20;99.90;;;;;;4192188;28;20417;-72
2023/03/19 09:01:45;;;;;;;5.05;3.78;;;14.20;99.90;;;;;;4182759;28;20045;-72
2023/03/19 09:03:45;;;;;;;5.03;3.60;;;14.20;99.90;;;;;;4195779;28;20574;-72
2023/03/19 09:05:46;;;;;;;4.50;3.70;;;14.10;99.90;;;;;;4190434;28;20059;-72
2023/03/19 09:07:48;;;;;;;4.45;3.10;;;14.10;99.90;;;;;;4192736;28;20039;-72
2023/03/19 09:09:49;;;;;;;3.83;3.38;;;14.10;99.90;;;;;;4193585;28;20064;-73
2023/03/19 09:11:50;;;;;;;5.18;3.58;;;14.00;99.90;;;;;;4193704;28;20511;-72
2023/03/19 09:13:51;;;;;;;4.70;3.55;;;14.10;99.90;;;;;;4195322;28;20131;-72
2023/03/19 09:15:52;;;;;;;4.55;3.65;;;14.10;99.90;;;;;;4191575;28;20040;-73
2023/03/19 09:17:52;;;;;;;4.57;3.80;;;14.00;99.90;;;;;;4193256;28;20514;-72
2023/03/19 09:19:53;;;;;;;4.55;3.38;;;14.00;99.90;;;;;;4193798;28;20024;-72
2023/03/19 09:21:54;;;;;;;4.80;3.53;;;14.00;99.90;;;;;;4186744;28;20047;-72
2023/03/19 09:23:55;;;;;;;4.57;3.63;;;14.00;99.90;;;;;;4191064;28;20033;-72
2023/03/19 09:25:55;;;;;;;3.78;3.38;;;14.00;99.90;;;;;;4189887;28;20426;-70
2023/03/19 09:27:56;;;;;;;5.28;3.88;;;14.00;99.90;;;;;;4189997;28;20496;-73
2023/03/19 09:29:57;;;;;;;4.72;3.88;;;13.90;99.90;;;;;;4191278;28;20025;-73
2023/03/19 09:31:57;;;;;;;6.15;3.45;;;13.90;99.90;;;;;;4191633;28;20025;-72
2023/03/19 09:33:58;;;;;;;4.15;3.33;;;14.00;99.90;;;;;;4192218;28;20055;-73
2023/03/19 09:35:58;;;;;;;5.63;3.92;;;13.90;99.90;;;;;;4189559;28;20492;-72
2023/03/19 09:38:00;;;;;;;4.40;3.58;;;14.00;99.90;;;;;;4192448;28;20051;-72
2023/03/19 09:40:03;;;;;;;4.90;4.13;;;14.00;99.90;;;;;;4191479;28;20068;-73
2023/03/19 09:42:04;;;;;;;5.55;3.60;;;14.00;99.90;;;;;;4190658;28;20028;-73
2023/03/19 09:44:20;;;;;;;5.57;4.05;;;14.00;99.90;;;;;;4192426;28;20391;-73
2023/03/19 09:46:28;;;;;;;5.20;3.38;;;14.10;99.90;;;;;;4191714;28;20145;-73
2023/03/19 09:48:39;;;;;;;6.32;3.58;;;14.10;99.90;;;;;;4191690;28;20028;-73
2023/03/19 09:50:40;;;;;;;4.57;3.70;;;14.20;99.90;;;;;;4192000;28;20031;-73
2023/03/19 09:52:48;;;;;;;4.28;3.40;;;14.20;99.90;;;;;;4193199;28;20029;-72
2023/03/19 09:54:51;;;;;;;3.53;3.22;;;14.20;99.90;;;;;;4193083;28;20101;-72
2023/03/19 09:56:53;;;;;;;6.13;3.40;;;14.20;99.90;;;;;;4190776;28;20028;-73
2023/03/19 09:58:53;;;;;;;4.85;3.00;;;14.20;99.90;;;;;;4193876;28;20384;-73
2023/03/19 10:00:55;;;;;;;3.78;3.03;;;14.30;99.90;;;;;;4186332;28;20029;-73
2023/03/19 10:03:18;;;;;;;4.22;3.00;;;14.30;99.90;;;;;;4194862;28;20040;-72
2023/03/19 10:05:31;;;;;;;6.07;2.95;;;14.30;99.90;;;;;;4192568;28;20394;-73
2023/03/19 10:08:13;;;;;;;4.55;3.15;;;14.40;99.90;;;;;;4195430;28;20434;-72
2023/03/19 10:10:23;;;;;;;5.60;3.40;;;14.40;99.90;;;;;;4188361;28;20025;-73
2023/03/19 10:12:44;;;;;;;5.95;3.33;;;14.40;99.90;;;;;;4191989;28;20036;-73
2023/03/19 10:15:19;;;;;;;6.55;2.80;;;14.40;99.90;;;;;;4191060;28;20035;-73
2023/03/19 10:17:32;;;;;;;5.65;3.13;;;14.50;99.90;;;;;;4185575;28;20098;-73
2023/03/19 10:19:49;;;;;;;3.53;2.40;;;14.50;99.90;;;;;;4194627;28;20472;-71
2023/03/19 10:21:57;;;;;;;4.93;2.88;;;14.60;99.90;;;;;;4195507;28;20537;-73
2023/03/19 10:24:35;;;;;;;3.60;2.88;;;14.60;99.90;;;;;;4194847;28;20048;-73
2023/03/19 10:26:36;;;;;;;4.35;2.85;;;14.70;99.90;;;;;;4177464;28;20028;-73
2023/03/19 10:28:38;;;;;;;3.75;2.78;;;14.80;99.90;;;;;;4192286;28;20040;-72
2023/03/19 10:30:40;;;;;;;4.50;3.13;;;14.90;99.90;;;;;;4195581;28;20028;-73
2023/03/19 10:32:50;;;;;;;3.88;2.63;;;15.00;99.90;;;;;;4195854;28;20029;-73
2023/03/19 10:34:52;;;;;;;4.75;3.10;;;15.10;99.90;;;;;;4196090;28;20059;-73
2023/03/19 10:37:06;;;;;;;4.53;2.70;;;15.20;99.90;;;;;;4184982;28;20032;-74